Time;durP1;ratioP1;P1;durP2;ratioP2;P2;SDS_P1;SDS_P2;PMS_P1;PMS_P2;Temp;Humidity;BMP_temperature;BMP_pressure;BME280_temperature;BME280_humidity;BME280_pressure;Samples;Min_cycle;Max_cycle;Signal;HPM_P1;HPM_P2
2020/12/22 00:01:55;;;;;;;16.25;9.45;;;;;;;3.88;65.19;101303.69;5040995;28;20045;-53
2020/12/22 00:04:24;;;;;;;12.50;8.63;;;;;;;3.30;65.33;101206.44;5030230;28;20453;-55
2020/12/22 00:06:50;;;;;;;15.50;9.27;;;;;;;3.81;65.52;101283.56;5033654;28;20029;-54
2020/12/22 00:09:15;;;;;;;14.05;8.88;;;;;;;3.87;65.27;101291.34;5015284;28;20049;-54
2020/12/22 00:11:41;;;;;;;15.30;9.48;;;;;;;3.88;65.70;101289.56;5043971;28;20040;-50
2020/12/22 00:14:08;;;;;;;13.70;8.93;;;;;;;3.86;66.02;101281.66;5030059;28;20029;-56
2020/12/22 00:16:37;;;;;;;15.30;9.25;;;;;;;3.95;65.24;101284.94;5035427;28;20124;-55
2020/12/22 00:19:06;;;;;;;13.00;8.80;;;;;;;3.92;64.85;101279.75;5019305;28;20176;-55
2020/12/22 00:21:33;;;;;;;12.77;8.88;;;;;;;3.93;64.93;101298.22;5019102;28;20039;-54
2020/12/22 00:23:58;;;;;;;14.25;9.23;;;;;;;3.94;65.48;101293.81;5041462;28;20033;-53
2020/12/22 00:26:24;;;;;;;12.55;8.80;;;;;;;3.87;65.46;101278.09;5029111;28;20040;-55
2020/12/22 00:28:49;;;;;;;13.27;8.43;;;;;;;3.97;65.18;101291.06;5029097;28;20476;-52
2020/12/22 00:31:15;;;;;;;14.85;9.27;;;;;;;3.97;64.88;101281.31;5026201;28;20036;-56
2020/12/22 00:33:40;;;;;;;13.02;8.48;;;;;;;3.99;64.99;101276.88;5020892;28;20071;-59
2020/12/22 00:36:07;;;;;;;13.57;8.63;;;;;;;4.01;65.12;101258.25;5039661;28;20037;-56
2020/12/22 00:38:33;;;;;;;12.00;8.25;;;;;;;3.89;64.99;101233.00;5028895;28;20073;-55
2020/12/22 00:40:58;;;;;;;13.00;8.57;;;;;;;3.98;64.40;101268.97;5033026;28;20468;-51
2020/12/22 00:43:23;;;;;;;12.68;8.75;;;;;;;3.99;65.28;101274.22;5038621;28;20030;-56
2020/12/22 00:45:49;;;;;;;12.70;7.65;;;;;;;4.01;65.53;101275.03;5012345;28;20038;-56
2020/12/22 00:48:14;;;;;;;11.25;7.78;;;;;;;3.94;65.46;101246.13;5030420;28;20123;-53
2020/12/22 00:50:40;;;;;;;13.68;8.48;;;;;;;3.82;65.31;101229.66;5035074;28;20042;-55
2020/12/22 00:53:06;;;;;;;13.10;8.15;;;;;;;4.03;64.99;101259.06;5028907;28;20033;-56
2020/12/22 00:55:32;;;;;;;13.07;8.43;;;;;;;3.54;65.29;101185.44;5028882;28;20401;-54
2020/12/22 00:57:57;;;;;;;13.45;8.32;;;;;;;3.99;64.99;101265.41;5029448;28;20037;-53
2020/12/22 01:00:23;;;;;;;13.75;8.45;;;;;;;3.49;65.48;101178.53;5040855;28;20404;-58
2020/12/22 01:02:48;;;;;;;13.27;8.60;;;;;;;3.94;66.02;101260.22;5034211;28;20497;-55
2020/12/22 01:05:14;;;;;;;14.00;8.63;;;;;;;4.00;65.24;101262.72;5028935;28;20919;-56
2020/12/22 01:07:39;;;;;;;13.63;9.05;;;;;;;3.96;65.21;101260.19;5034643;28;20028;-56
2020/12/22 01:10:05;;;;;;;14.52;8.70;;;;;;;3.98;65.59;101269.84;5020491;28;20556;-55
2020/12/22 01:12:30;;;;;;;15.55;9.40;;;;;;;3.94;65.55;101268.16;5036165;28;20047;-57
2020/12/22 01:14:56;;;;;;;18.45;9.25;;;;;;;3.91;65.95;101268.25;5036644;28;20128;-56
2020/12/22 01:17:21;;;;;;;18.27;9.93;;;;;;;3.84;65.48;101251.66;5032625;28;20025;-58
2020/12/22 01:19:47;;;;;;;16.40;10.10;;;;;;;3.78;66.43;101257.16;5033321;28;20029;-56
2020/12/22 01:22:12;;;;;;;14.93;9.27;;;;;;;3.82;65.86;101261.44;5022256;28;20245;-58
2020/12/22 01:24:38;;;;;;;14.85;9.50;;;;;;;3.62;65.85;101218.78;5039541;28;20043;-51
2020/12/22 01:27:03;;;;;;;15.18;9.43;;;;;;;3.85;66.38;101269.31;5052532;28;20040;-58
2020/12/22 01:29:29;;;;;;;15.57;9.80;;;;;;;3.84;66.25;101256.13;5049091;28;20444;-57
2020/12/22 01:31:56;;;;;;;14.95;9.02;;;;;;;3.49;66.10;101195.31;5032417;28;20090;-57
2020/12/22 01:34:21;;;;;;;14.18;9.48;;;;;;;3.91;66.65;101268.25;5014213;28;20038;-54
2020/12/22 01:36:46;;;;;;;15.25;10.15;;;;;;;3.94;66.29;101265.53;5047815;28;20090;-57
2020/12/22 01:39:12;;;;;;;16.58;10.13;;;;;;;3.93;66.22;101254.97;5034452;28;20056;-52
2020/12/22 01:41:38;;;;;;;16.17;9.75;;;;;;;3.94;66.45;101269.97;5032506;28;20474;-55
2020/12/22 01:44:08;;;;;;;16.35;9.82;;;;;;;3.91;65.90;101244.41;5032100;28;20048;-56
2020/12/22 01:46:40;;;;;;;16.35;10.38;;;;;;;3.57;65.99;101195.94;5039227;28;20040;-53
2020/12/22 01:49:25;;;;;;;18.20;10.65;;;;;;;3.55;66.88;101184.53;5017095;28;20046;-58
2020/12/22 01:51:53;;;;;;;17.48;11.20;;;;;;;3.95;66.16;101247.84;5026750;28;20095;-58
2020/12/22 01:54:19;;;;;;;18.25;10.98;;;;;;;3.95;66.39;101250.50;5044422;28;20115;-54
2020/12/22 01:56:46;;;;;;;18.08;10.68;;;;;;;3.93;66.17;101233.78;5038848;28;20088;-55
2020/12/22 01:59:13;;;;;;;18.38;10.77;;;;;;;3.91;66.06;101236.47;5030000;28;20148;-54
2020/12/22 02:01:38;;;;;;;15.45;9.93;;;;;;;3.93;66.27;101239.09;5011952;28;20049;-51
2020/12/22 02:04:06;;;;;;;18.02;10.27;;;;;;;3.93;66.41;101236.44;5011896;28;20052;-52
2020/12/22 02:06:33;;;;;;;18.45;11.38;;;;;;;3.93;65.94;101234.63;5012275;28;20037;-54
2020/12/22 02:09:00;;;;;;;17.38;9.75;;;;;;;3.94;66.21;101240.81;4995003;28;20033;-55
2020/12/22 02:11:31;;;;;;;17.33;10.80;;;;;;;3.92;66.10;101237.34;5013347;28;20046;-52
2020/12/22 02:13:58;;;;;;;19.63;10.82;;;;;;;3.89;66.59;101227.69;5011933;28;20080;-52
2020/12/22 02:16:24;;;;;;;17.27;10.43;;;;;;;3.83;66.34;101204.91;5012095;28;20038;-52
2020/12/22 02:18:51;;;;;;;18.08;11.35;;;;;;;3.55;65.78;101158.06;5012105;28;20045;-55
2020/12/22 02:21:17;;;;;;;17.92;11.00;;;;;;;3.47;65.67;101146.84;5011103;28;20111;-50
2020/12/22 02:23:52;;;;;;;20.40;11.50;;;;;;;3.83;66.38;101212.84;4999161;28;20033;-55
2020/12/22 02:26:21;;;;;;;21.75;11.13;;;;;;;3.84;66.19;101213.72;5015079;28;20081;-50
2020/12/22 02:28:48;;;;;;;20.52;11.85;;;;;;;3.46;66.31;101161.00;5011372;28;20496;-54
2020/12/22 02:31:14;;;;;;;20.55;11.32;;;;;;;3.82;65.98;101204.97;5011542;28;20465;-55
2020/12/22 02:33:39;;;;;;;19.95;11.57;;;;;;;3.85;66.05;101211.00;5009869;28;20064;-56
2020/12/22 02:36:13;;;;;;;18.25;11.18;;;;;;;3.88;66.58;101210.94;5012760;28;20092;-56
2020/12/22 02:38:38;;;;;;;19.15;11.27;;;;;;;3.87;66.18;101217.16;5026901;28;20043;-53
2020/12/22 02:41:05;;;;;;;19.05;11.48;;;;;;;3.78;65.98;101204.19;5026080;28;20153;-52
2020/12/22 02:43:31;;;;;;;19.45;11.02;;;;;;;3.86;66.40;101211.91;5011904;28;20122;-55
2020/12/22 02:45:56;;;;;;;21.50;12.55;;;;;;;3.77;66.22;101193.66;5011478;28;20116;-54
2020/12/22 02:48:22;;;;;;;20.55;12.70;;;;;;;3.86;66.22;101210.13;5011784;28;20132;-53
2020/12/22 02:50:48;;;;;;;20.58;11.63;;;;;;;3.86;65.88;101214.53;5011741;28;20057;-54
2020/12/22 02:53:13;;;;;;;18.92;11.18;;;;;;;3.77;65.88;101197.16;5011155;28;20030;-53
2020/12/22 02:55:40;;;;;;;20.05;12.00;;;;;;;3.63;65.75;101178.16;5011222;28;20485;-55
2020/12/22 02:58:05;;;;;;;19.35;11.13;;;;;;;3.82;65.75;101205.81;5011599;28;20034;-55
2020/12/22 03:00:31;;;;;;;20.42;11.65;;;;;;;3.78;65.67;101205.97;5017768;28;20053;-56
2020/12/22 03:02:56;;;;;;;18.85;11.40;;;;;;;3.78;66.01;101204.19;5010801;28;20050;-54
2020/12/22 03:05:22;;;;;;;19.40;10.60;;;;;;;3.80;66.10;101220.03;4996817;28;20028;-56
2020/12/22 03:07:48;;;;;;;20.08;11.55;;;;;;;3.64;65.86;101182.56;5024438;28;20053;-55
2020/12/22 03:10:16;;;;;;;17.55;10.23;;;;;;;3.75;65.73;101204.28;5020937;28;20507;-58
2020/12/22 03:12:42;;;;;;;18.85;11.18;;;;;;;3.77;65.99;101205.09;4999059;28;20033;-57
2020/12/22 03:15:08;;;;;;;22.63;11.73;;;;;;;3.80;65.93;101212.09;5014022;28;20038;-57
2020/12/22 03:17:35;;;;;;;17.08;10.80;;;;;;;3.70;65.70;101193.81;5025851;28;20064;-57
2020/12/22 03:20:01;;;;;;;19.55;11.65;;;;;;;3.84;66.08;101211.09;5017577;28;20083;-56
2020/12/22 03:22:28;;;;;;;18.33;10.23;;;;;;;3.84;66.33;101203.97;5019133;28;20096;-59
2020/12/22 03:24:54;;;;;;;18.75;10.88;;;;;;;3.54;65.65;101151.03;5022607;28;20034;-57
2020/12/22 03:27:21;;;;;;;18.52;10.75;;;;;;;3.94;65.72;101216.97;5021421;28;20043;-57
2020/12/22 03:29:46;;;;;;;18.98;11.43;;;;;;;3.95;65.78;101205.47;5024183;28;20121;-56
2020/12/22 03:32:12;;;;;;;17.52;10.55;;;;;;;3.95;65.76;101206.31;5021119;28;20041;-60
2020/12/22 03:34:37;;;;;;;19.65;11.10;;;;;;;3.97;65.36;101200.97;5016170;28;20121;-55
2020/12/22 03:37:03;;;;;;;19.45;11.35;;;;;;;3.97;65.35;101200.97;5026406;28;20140;-53
2020/12/22 03:39:29;;;;;;;19.70;12.00;;;;;;;3.95;65.81;101202.81;5014308;28;20029;-58
2020/12/22 03:41:54;;;;;;;18.95;11.07;;;;;;;2.75;65.03;100998.97;5023046;28;20049;-58
2020/12/22 03:44:20;;;;;;;19.23;11.18;;;;;;;3.43;65.17;101116.91;5022278;28;20021;-56
2020/12/22 03:46:48;;;;;;;18.92;11.60;;;;;;;3.90;65.59;101202.09;5015792;28;20096;-55
2020/12/22 03:49:18;;;;;;;19.67;12.00;;;;;;;3.88;65.47;101213.59;5008561;28;20029;-54
2020/12/22 03:51:45;;;;;;;22.42;11.88;;;;;;;3.71;65.06;101181.44;5010382;28;20095;-53
2020/12/22 03:54:14;;;;;;;19.98;11.60;;;;;;;3.49;65.07;101150.31;5020172;28;20445;-54
2020/12/22 03:56:40;;;;;;;22.33;12.50;;;;;;;3.80;65.68;101217.38;5016078;28;20146;-55
2020/12/22 03:59:05;;;;;;;23.13;12.65;;;;;;;3.38;65.65;101163.00;5026011;28;20144;-50
2020/12/22 04:01:31;;;;;;;23.65;13.73;;;;;;;3.66;65.49;101204.56;5014735;28;20068;-55
2020/12/22 04:03:57;;;;;;;21.75;11.90;;;;;;;3.57;65.86;101193.31;5022303;28;20489;-53
2020/12/22 04:06:23;;;;;;;28.17;15.38;;;;;;;3.57;66.06;101209.19;5013679;28;20061;-57
2020/12/22 04:08:52;;;;;;;28.58;14.60;;;;;;;3.53;66.43;101204.06;4988758;28;20133;-50
2020/12/22 04:11:18;;;;;;;23.38;13.80;;;;;;;3.42;66.32;101193.78;5025180;28;20037;-54
2020/12/22 04:13:43;;;;;;;27.27;15.48;;;;;;;3.08;66.72;101149.72;5015972;28;20044;-54
2020/12/22 04:16:09;;;;;;;28.70;14.75;;;;;;;3.43;66.14;101201.66;5019812;28;20055;-58
2020/12/22 04:18:34;;;;;;;31.30;16.00;;;;;;;3.48;66.02;101221.81;5022123;28;20125;-51
2020/12/22 04:21:00;;;;;;;31.27;16.55;;;;;;;3.35;66.15;101189.53;5012891;28;20034;-55
2020/12/22 04:23:26;;;;;;;32.65;17.48;;;;;;;3.28;66.08;101187.06;5028811;28;20044;-58
2020/12/22 04:25:52;;;;;;;30.40;15.80;;;;;;;3.00;66.21;101148.16;5023908;28;20041;-55
2020/12/22 04:28:18;;;;;;;33.60;17.58;;;;;;;3.28;66.14;101196.81;5018390;28;20061;-55
2020/12/22 04:30:43;;;;;;;32.47;16.58;;;;;;;3.04;66.09;101154.25;5023588;28;20030;-53
2020/12/22 04:33:10;;;;;;;31.27;16.88;;;;;;;3.24;66.34;101203.97;5012778;28;20456;-53
2020/12/22 04:35:36;;;;;;;32.55;17.17;;;;;;;3.21;66.65;101197.88;5026191;28;20501;-52
2020/12/22 04:38:03;;;;;;;33.83;18.63;;;;;;;3.18;66.57;101198.84;5020562;28;20080;-59
2020/12/22 04:40:29;;;;;;;33.45;17.00;;;;;;;3.09;66.38;101191.13;5010117;28;20497;-57
2020/12/22 04:42:55;;;;;;;30.88;16.13;;;;;;;2.64;66.43;101111.19;5025144;28;20045;-55
2020/12/22 04:45:21;;;;;;;32.28;15.82;;;;;;;3.08;66.72;101202.63;5012994;28;20136;-58
2020/12/22 04:47:48;;;;;;;32.78;16.75;;;;;;;3.08;66.67;101187.63;5026234;28;20053;-54
2020/12/22 04:50:15;;;;;;;33.58;16.52;;;;;;;3.07;66.13;101191.19;5016489;28;20026;-53
2020/12/22 04:52:41;;;;;;;33.80;17.08;;;;;;;3.03;66.33;101186.03;5011968;28;20413;-56
2020/12/22 04:55:06;;;;;;;28.50;16.38;;;;;;;2.94;66.33;101180.06;5029526;28;20041;-55
2020/12/22 04:57:32;;;;;;;29.27;16.38;;;;;;;2.84;66.13;101170.63;5017484;28;20470;-57
2020/12/22 05:00:01;;;;;;;32.80;18.00;;;;;;;2.84;66.63;101191.78;5025081;28;20054;-52
2020/12/22 05:02:28;;;;;;;33.35;16.17;;;;;;;2.90;67.01;101191.66;5018733;28;20037;-52
2020/12/22 05:04:54;;;;;;;31.20;16.67;;;;;;;2.88;66.63;101196.09;5028692;28;20048;-57
2020/12/22 05:07:20;;;;;;;29.80;16.88;;;;;;;2.84;66.81;101194.44;5016515;28;20026;-53
2020/12/22 05:09:46;;;;;;;29.83;15.88;;;;;;;2.80;66.67;101187.50;5026906;28;20042;-55
2020/12/22 05:12:11;;;;;;;29.80;16.20;;;;;;;2.80;67.11;101190.16;5023247;28;20033;-64
2020/12/22 05:14:37;;;;;;;29.05;15.77;;;;;;;2.74;66.47;101185.88;5019563;28;20452;-64
2020/12/22 05:17:02;;;;;;;26.75;15.55;;;;;;;2.65;66.83;101164.97;5020247;28;20045;-63
2020/12/22 05:19:34;;;;;;;26.23;14.52;;;;;;;2.73;66.56;101184.13;5008404;28;20026;-65
2020/12/22 05:22:02;;;;;;;26.02;15.20;;;;;;;2.58;66.18;101173.06;5009996;28;20033;-55
2020/12/22 05:24:28;;;;;;;27.95;14.70;;;;;;;2.68;66.76;101194.88;5002364;28;20069;-51
2020/12/22 05:26:54;;;;;;;23.88;13.57;;;;;;;2.63;65.86;101195.88;5022845;28;20049;-50
2020/12/22 05:29:20;;;;;;;25.63;13.70;;;;;;;2.54;66.09;101191.69;5029565;28;20240;-57
2020/12/22 05:31:50;;;;;;;24.50;14.35;;;;;;;2.45;66.10;101174.28;5019720;28;20477;-55
2020/12/22 05:34:17;;;;;;;25.63;13.85;;;;;;;2.49;66.13;101199.72;5004023;28;20112;-57
2020/12/22 05:36:44;;;;;;;26.10;14.88;;;;;;;1.92;65.82;101108.63;5025931;28;20033;-55
2020/12/22 05:39:11;;;;;;;25.85;14.52;;;;;;;2.35;65.93;101191.28;5015501;28;20030;-55
2020/12/22 05:41:37;;;;;;;22.95;13.52;;;;;;;2.43;65.82;101210.47;5018256;28;20037;-59
2020/12/22 05:44:04;;;;;;;26.75;14.40;;;;;;;2.31;66.26;101189.63;5023492;28;20128;-59
2020/12/22 05:46:31;;;;;;;22.23;13.48;;;;;;;2.24;65.96;101176.53;5025983;28;20152;-57
2020/12/22 05:48:59;;;;;;;23.77;13.57;;;;;;;2.32;66.03;101202.78;5017519;28;20088;-58
2020/12/22 05:51:26;;;;;;;22.88;13.65;;;;;;;2.25;65.97;101195.91;5013325;28;20033;-59
2020/12/22 05:53:53;;;;;;;23.27;13.48;;;;;;;2.20;66.49;101209.22;5019578;28;20037;-55
2020/12/22 05:56:21;;;;;;;24.20;13.57;;;;;;;2.19;66.40;101207.50;5021419;28;20044;-57
2020/12/22 05:58:48;;;;;;;26.10;14.60;;;;;;;2.03;66.51;101183.22;5027408;28;20488;-56
2020/12/22 06:01:28;;;;;;;26.42;14.38;;;;;;;1.89;66.21;101141.28;5015586;28;20065;-56
2020/12/22 06:03:55;;;;;;;24.17;14.02;;;;;;;2.16;65.72;101207.56;5024256;28;20071;-51
2020/12/22 06:06:21;;;;;;;25.17;13.93;;;;;;;2.10;65.91;101192.72;4994510;28;20156;-62
2020/12/22 06:08:49;;;;;;;24.88;14.65;;;;;;;2.18;65.74;101210.19;5027492;28;20116;-62
2020/12/22 06:11:14;;;;;;;23.42;13.82;;;;;;;2.15;65.70;101205.84;5015288;28;20060;-61
2020/12/22 06:13:40;;;;;;;23.77;14.13;;;;;;;1.77;65.70;101152.97;5026165;28;20022;-63
2020/12/22 06:16:22;;;;;;;21.15;13.02;;;;;;;2.00;66.04;101197.34;5020994;28;20431;-63
2020/12/22 06:18:50;;;;;;;24.08;13.35;;;;;;;2.06;65.57;101203.41;5013403;28;20145;-62
2020/12/22 06:21:20;;;;;;;21.88;13.20;;;;;;;2.10;65.50;101205.06;5013935;28;20038;-62
2020/12/22 06:23:47;;;;;;;22.95;13.27;;;;;;;2.11;65.11;101205.03;5012844;28;20221;-61
2020/12/22 06:26:13;;;;;;;23.58;14.68;;;;;;;2.00;65.38;101196.50;5021827;28;20056;-60
2020/12/22 06:28:39;;;;;;;22.98;13.88;;;;;;;1.99;65.87;101211.47;5017552;28;20030;-62
2020/12/22 06:31:21;;;;;;;22.55;13.25;;;;;;;2.08;65.80;101204.25;5017185;28;20038;-62
2020/12/22 06:33:48;;;;;;;23.05;13.75;;;;;;;2.01;65.58;101206.16;5025049;28;20512;-61
2020/12/22 06:36:17;;;;;;;23.88;13.13;;;;;;;2.08;65.29;101191.03;5029829;28;20125;-60
2020/12/22 06:38:54;;;;;;;23.33;14.55;;;;;;;2.17;65.15;101200.50;4999235;28;20053;-60
2020/12/22 06:41:35;;;;;;;25.10;13.82;;;;;;;2.23;64.70;101192.44;5015108;28;20640;-60
2020/12/22 06:44:26;;;;;;;23.83;14.20;;;;;;;2.23;64.68;101195.94;5011169;28;20034;-57
2020/12/22 06:46:59;;;;;;;25.40;14.15;;;;;;;2.13;64.73;101176.78;5012698;28;20087;-62
2020/12/22 06:49:48;;;;;;;22.15;12.98;;;;;;;2.34;64.53;101189.53;5011382;28;20064;-61
2020/12/22 06:52:32;;;;;;;22.10;13.27;;;;;;;2.23;64.10;101152.81;5013481;28;20409;-59
2020/12/22 06:54:59;;;;;;;23.42;13.95;;;;;;;2.47;63.70;101179.53;5011892;28;20034;-63
2020/12/22 06:57:43;;;;;;;23.05;13.82;;;;;;;2.55;63.65;101182.84;4993745;28;20084;-62
2020/12/22 07:00:22;;;;;;;24.38;14.13;;;;;;;2.60;63.36;101180.94;5014536;28;20536;-60
2020/12/22 07:02:49;;;;;;;29.80;14.45;;;;;;;2.65;63.03;101171.16;5010283;28;20050;-58
2020/12/22 07:05:34;;;;;;;22.73;14.00;;;;;;;2.29;62.62;101098.03;5014449;28;20060;-64
2020/12/22 07:08:01;;;;;;;24.85;14.45;;;;;;;2.72;62.50;101178.00;5008784;28;20037;-62
2020/12/22 07:10:28;;;;;;;22.52;13.20;;;;;;;2.70;62.40;101177.19;5009078;28;20075;-62
2020/12/22 07:12:56;;;;;;;24.45;13.57;;;;;;;2.63;62.73;101186.16;5010628;28;20037;-61
2020/12/22 07:15:29;;;;;;;27.05;14.90;;;;;;;2.56;62.50;101181.94;5010811;28;20128;-63
2020/12/22 07:18:13;;;;;;;19.85;12.65;;;;;;;2.56;62.38;101171.38;5009665;28;20045;-60
2020/12/22 07:20:45;;;;;;;22.58;13.07;;;;;;;2.38;62.00;101155.06;5010184;28;20042;-60
2020/12/22 07:23:12;;;;;;;20.70;13.15;;;;;;;2.29;62.70;101157.94;5010319;28;20389;-60
2020/12/22 07:25:39;;;;;;;22.52;13.63;;;;;;;2.40;62.46;101179.66;5009863;28;20042;-62
2020/12/22 07:28:07;;;;;;;26.88;15.00;;;;;;;2.43;62.49;101182.25;5002246;28;20037;-62
2020/12/22 07:30:33;;;;;;;23.13;14.30;;;;;;;2.46;62.47;101183.09;5010000;28;20040;-61
2020/12/22 07:33:00;;;;;;;23.70;14.57;;;;;;;2.31;62.49;101164.03;5010782;28;21974;-62
2020/12/22 07:35:29;;;;;;;23.23;14.15;;;;;;;2.40;62.38;101186.75;4994546;28;20029;-62
2020/12/22 07:38:21;;;;;;;23.98;13.30;;;;;;;2.45;62.86;101184.84;5015736;28;20331;-61
2020/12/22 07:40:46;;;;;;;22.80;13.45;;;;;;;2.47;62.09;101180.38;5016717;28;20046;-62
2020/12/22 07:43:13;;;;;;;23.60;13.65;;;;;;;2.29;62.22;101150.00;5015898;28;20038;-59
2020/12/22 07:45:50;;;;;;;23.75;13.70;;;;;;;2.40;62.55;101176.16;5015346;28;20112;-62
2020/12/22 07:48:16;;;;;;;21.35;12.98;;;;;;;2.35;62.23;101171.00;5014661;28;20034;-63
2020/12/22 07:50:41;;;;;;;21.23;12.80;;;;;;;2.33;62.39;101171.94;5018031;28;20226;-64
2020/12/22 07:53:07;;;;;;;22.48;13.70;;;;;;;2.23;62.17;101161.59;5016549;28;20152;-57
2020/12/22 07:55:39;;;;;;;20.92;13.25;;;;;;;2.29;62.51;101171.16;5012387;28;20088;-57
2020/12/22 07:58:06;;;;;;;20.75;13.07;;;;;;;2.32;62.51;101170.22;5016045;28;20030;-59
2020/12/22 08:00:32;;;;;;;23.33;13.50;;;;;;;2.29;62.51;101171.16;5016739;28;20116;-56
2020/12/22 08:03:14;;;;;;;21.58;13.93;;;;;;;2.19;62.39;101165.22;5017213;28;20097;-61
2020/12/22 08:05:39;;;;;;;19.88;12.20;;;;;;;2.29;61.83;101179.06;4994342;28;20113;-57
2020/12/22 08:08:05;;;;;;;19.30;12.70;;;;;;;2.21;62.09;101178.41;5016398;28;20468;-56
2020/12/22 08:10:30;;;;;;;17.17;11.75;;;;;;;1.80;62.13;101121.22;5007453;28;20109;-51
2020/12/22 08:12:58;;;;;;;18.75;12.40;;;;;;;2.13;62.41;101171.50;5012349;28;20064;-56
2020/12/22 08:15:23;;;;;;;18.38;11.38;;;;;;;2.13;61.99;101166.22;5016114;28;20084;-54
2020/12/22 08:17:54;;;;;;;18.42;11.63;;;;;;;2.02;62.17;101181.47;5009088;28;20037;-61
2020/12/22 08:20:19;;;;;;;20.38;11.32;;;;;;;1.93;62.48;101164.06;4991762;28;20104;-59
2020/12/22 08:22:45;;;;;;;18.17;11.32;;;;;;;1.88;62.59;101151.84;5014828;28;20478;-60
2020/12/22 08:25:12;;;;;;;19.02;12.50;;;;;;;1.76;62.55;101156.53;5011263;28;20026;-61
2020/12/22 08:27:38;;;;;;;18.15;11.27;;;;;;;1.89;62.71;101177.34;4992017;28;20029;-60
2020/12/22 08:30:17;;;;;;;17.48;10.95;;;;;;;1.88;62.91;101175.63;5011630;28;20044;-60
2020/12/22 08:32:44;;;;;;;16.90;10.50;;;;;;;1.67;62.44;101156.72;5012169;28;20564;-62
2020/12/22 08:35:10;;;;;;;18.98;10.65;;;;;;;1.70;62.85;101167.22;5009616;28;20034;-60
2020/12/22 08:37:36;;;;;;;19.42;10.52;;;;;;;1.68;62.97;101163.72;5009433;28;20413;-57
2020/12/22 08:40:03;;;;;;;17.73;10.18;;;;;;;1.68;62.68;101153.16;5009723;28;20042;-52
2020/12/22 08:42:30;;;;;;;14.82;9.48;;;;;;;1.62;62.62;101153.31;5013802;28;20029;-60
2020/12/22 08:44:55;;;;;;;19.08;9.88;;;;;;;1.59;62.56;101138.44;5011071;28;20034;-59
2020/12/22 08:47:21;;;;;;;14.25;8.93;;;;;;;1.58;62.58;101139.34;5008836;28;20935;-58
2020/12/22 08:49:47;;;;;;;14.60;9.77;;;;;;;1.68;62.80;101158.44;5008783;28;20561;-54
2020/12/22 08:52:14;;;;;;;14.93;9.85;;;;;;;1.75;62.61;101146.88;5009042;28;20093;-54
2020/12/22 08:54:41;;;;;;;14.00;9.20;;;;;;;1.76;62.20;101145.97;5008941;28;20121;-61
2020/12/22 08:57:13;;;;;;;16.90;9.57;;;;;;;1.73;61.99;101148.69;5008958;28;20060;-64
2020/12/22 08:59:39;;;;;;;14.23;8.85;;;;;;;1.64;62.52;101151.50;5012664;28;20140;-59
2020/12/22 09:02:04;;;;;;;16.90;9.50;;;;;;;1.61;62.23;101151.56;5009228;28;20133;-66
2020/12/22 09:04:32;;;;;;;13.82;9.27;;;;;;;1.59;62.04;101143.72;5008811;28;20037;-61
2020/12/22 09:06:58;;;;;;;19.00;10.23;;;;;;;1.50;62.23;101152.69;5008861;28;20099;-64
2020/12/22 09:09:31;;;;;;;16.23;10.30;;;;;;;1.41;62.49;101139.66;5008670;28;20497;-58
2020/12/22 09:12:10;;;;;;;17.45;11.38;;;;;;;1.44;62.74;101144.88;5008826;28;20123;-59
2020/12/22 09:14:46;;;;;;;18.30;9.77;;;;;;;1.42;62.94;101146.69;5008670;28;20034;-61
2020/12/22 09:17:32;;;;;;;16.10;10.15;;;;;;;1.48;62.84;101129.84;5008723;28;20029;-61
2020/12/22 09:19:58;;;;;;;;;;;;;;;1.64;62.30;101128.63;5009478;28;20038;-63
2020/12/22 09:22:25;;;;;;;;;;;;;;;1.72;61.44;101117.91;5009141;28;19945;-60
2020/12/22 09:24:55;;;;;;;14.68;9.20;;;;;;;1.58;61.67;101105.88;5008181;28;19917;-56
2020/12/22 09:27:32;;;;;;;16.40;8.80;;;;;;;1.35;61.68;101092.31;5008874;28;20042;-55
2020/12/22 09:29:58;;;;;;;14.43;8.88;;;;;;;1.37;62.32;101107.22;5009176;28;20030;-57
2020/12/22 09:32:24;;;;;;;14.13;8.95;;;;;;;1.32;62.17;101116.13;5007638;28;20037;-55
2020/12/22 09:34:49;;;;;;;17.42;9.75;;;;;;;1.22;62.46;101118.97;4996342;28;20054;-54
2020/12/22 09:37:15;;;;;;;15.27;8.63;;;;;;;1.18;62.49;101112.00;5012910;28;20192;-57
2020/12/22 09:39:41;;;;;;;13.75;8.40;;;;;;;1.13;62.49;101111.22;5013123;28;20033;-53
2020/12/22 09:42:07;;;;;;;12.90;8.65;;;;;;;0.66;62.58;101029.56;5011724;28;20038;-55
2020/12/22 09:44:35;;;;;;;11.05;7.55;;;;;;;1.19;62.74;101113.72;5012939;28;20533;-57
2020/12/22 09:47:01;;;;;;;12.57;8.63;;;;;;;1.25;62.21;101097.78;5013144;28;20146;-55
2020/12/22 09:49:26;;;;;;;15.27;8.55;;;;;;;1.29;61.63;101103.84;5012936;28;20523;-60
2020/12/22 09:51:53;;;;;;;14.82;9.50;;;;;;;1.24;61.79;101111.91;5012172;28;20037;-56
2020/12/22 09:54:19;;;;;;;13.35;8.63;;;;;;;1.18;61.83;101098.81;4999031;28;20038;-58
2020/12/22 09:56:46;;;;;;;12.15;8.30;;;;;;;1.14;62.32;101107.69;5008264;28;20042;-57
2020/12/22 09:59:11;;;;;;;12.50;7.78;;;;;;;1.02;62.11;101077.16;5016906;28;20058;-60
2020/12/22 10:01:37;;;;;;;12.05;8.00;;;;;;;1.17;62.03;101105.00;5020286;28;20397;-59
2020/12/22 10:04:03;;;;;;;11.43;7.72;;;;;;;1.18;61.48;101103.22;5024100;28;20044;-58
2020/12/22 10:06:28;;;;;;;11.77;7.03;;;;;;;1.10;61.43;101101.63;5016710;28;20052;-56
2020/12/22 10:08:55;;;;;;;8.93;6.07;;;;;;;1.13;61.48;101108.59;5028440;28;20495;-58
2020/12/22 10:11:24;;;;;;;8.88;6.53;;;;;;;1.05;61.28;101095.56;5017802;28;20146;-57
2020/12/22 10:13:51;;;;;;;11.32;6.47;;;;;;;1.04;61.55;101098.25;5027930;28;20512;-56
2020/12/22 10:16:18;;;;;;;10.73;7.28;;;;;;;1.06;61.33;101096.44;5017750;28;20097;-58
2020/12/22 10:18:44;;;;;;;9.98;7.10;;;;;;;1.05;61.55;101095.56;5021237;28;20084;-57
2020/12/22 10:21:11;;;;;;;8.77;6.20;;;;;;;0.98;61.14;101071.09;5026927;28;20061;-59
2020/12/22 10:23:38;;;;;;;9.77;6.20;;;;;;;0.84;61.30;101084.56;5013186;28;20053;-54
2020/12/22 10:26:05;;;;;;;9.27;6.18;;;;;;;0.87;61.06;101081.00;5023502;28;20068;-57
2020/12/22 10:28:32;;;;;;;10.15;5.47;;;;;;;0.71;61.06;101089.19;5015855;28;20060;-62
2020/12/22 10:30:59;;;;;;;7.47;5.05;;;;;;;0.62;61.36;101089.38;5007818;28;20037;-61
2020/12/22 10:33:25;;;;;;;8.18;5.35;;;;;;;0.53;61.05;101093.03;5019664;28;20125;-63
2020/12/22 10:35:50;;;;;;;7.35;4.97;;;;;;;0.31;60.97;101089.94;5005505;28;20116;-59
2020/12/22 10:38:16;;;;;;;7.85;5.20;;;;;;;0.27;61.55;101094.38;5019015;28;20030;-58
2020/12/22 10:40:41;;;;;;;8.32;5.43;;;;;;;0.16;61.23;101092.81;5018143;28;20057;-63
2020/12/22 10:43:07;;;;;;;7.55;5.28;;;;;;;0.05;61.87;101096.53;5012553;28;20029;-55
2020/12/22 10:45:33;;;;;;;7.13;4.82;;;;;;;-0.10;61.86;101080.97;5016225;28;20869;-61
2020/12/22 10:47:59;;;;;;;10.45;6.32;;;;;;;-0.10;62.25;101092.38;5010885;28;20033;-61
2020/12/22 10:50:24;;;;;;;10.45;5.88;;;;;;;-0.13;62.16;101097.66;5015526;28;20034;-63
2020/12/22 10:52:50;;;;;;;8.57;5.20;;;;;;;-0.16;62.26;101089.81;5007486;28;20031;-64
2020/12/22 10:55:15;;;;;;;8.90;5.72;;;;;;;-0.13;62.19;101102.06;5022625;28;20037;-64
2020/12/22 10:57:41;;;;;;;8.20;5.53;;;;;;;-0.22;61.91;101080.28;5023819;28;20134;-61
2020/12/22 11:00:07;;;;;;;10.27;5.25;;;;;;;-0.08;61.58;101094.97;5021573;28;20060;-58
2020/12/22 11:02:33;;;;;;;9.98;5.50;;;;;;;-0.41;62.09;101045.47;5030969;28;20083;-64
2020/12/22 11:04:59;;;;;;;8.45;5.75;;;;;;;-0.39;61.80;101054.19;5031610;28;20505;-64
2020/12/22 11:07:50;;;;;;;9.88;5.82;;;;;;;-0.31;62.24;101062.88;5026746;28;20140;-62
2020/12/22 11:10:10;;;;;;;10.73;6.30;;;;;;;-0.03;62.03;101099.28;5021247;28;20541;-64
2020/12/22 11:12:35;;;;;;;10.25;6.22;;;;;;;-0.04;62.07;101086.13;5027755;28;20472;-64
2020/12/22 11:15:01;;;;;;;9.40;5.95;;;;;;;-0.30;61.84;101042.66;5029000;28;20125;-61
2020/12/22 11:17:27;;;;;;;11.45;6.63;;;;;;;-0.05;61.42;101089.66;5029995;28;20384;-63
2020/12/22 11:19:53;;;;;;;7.55;5.28;;;;;;;-0.12;61.59;101093.28;5024771;28;20082;-62
2020/12/22 11:22:19;;;;;;;7.90;5.25;;;;;;;-0.69;61.88;101005.56;5022267;28;20061;-68
2020/12/22 11:24:44;;;;;;;7.22;5.15;;;;;;;-0.31;61.71;101089.19;5028490;28;20049;-68